Time;durP1;ratioP1;P1;durP2;ratioP2;P2;SDS_P1;SDS_P2;PMS_P1;PMS_P2;Temp;Humidity;BMP_temperature;BMP_pressure;BME280_temperature;BME280_humidity;BME280_pressure;Samples;Min_cycle;Max_cycle;Signal;HPM_P1;HPM_P2
2022/07/07 00:02:11;;;;;;;1.33;0.55;;;17.40;68.70;;;;;;5072327;28;20111;-76
2022/07/07 00:04:36;;;;;;;1.35;0.32;;;17.40;68.50;;;;;;5072627;28;20028;-77
2022/07/07 00:07:03;;;;;;;6.18;0.40;;;17.40;68.70;;;;;;5051707;28;20634;-77
2022/07/07 00:09:30;;;;;;;1.85;0.60;;;17.30;68.70;;;;;;5051371;28;20036;-77
2022/07/07 00:11:56;;;;;;;1.55;0.40;;;17.30;69.00;;;;;;5057101;28;20098;-77
2022/07/07 00:14:21;;;;;;;0.63;0.30;;;17.30;69.10;;;;;;5047648;28;20122;-78
2022/07/07 00:16:47;;;;;;;1.13;0.30;;;17.30;68.70;;;;;;5061540;28;20039;-79
2022/07/07 00:19:12;;;;;;;1.65;0.68;;;17.30;69.20;;;;;;5068938;28;20111;-77
2022/07/07 00:21:38;;;;;;;1.55;0.70;;;17.20;69.20;;;;;;5063248;28;20029;-78
2022/07/07 00:24:03;;;;;;;1.13;0.50;;;17.20;69.10;;;;;;5053244;28;20674;-77
2022/07/07 00:26:32;;;;;;;1.40;0.55;;;17.20;68.80;;;;;;5051243;28;20498;-79
2022/07/07 00:28:58;;;;;;;0.95;0.40;;;17.20;68.90;;;;;;5053304;28;20108;-78
2022/07/07 00:31:23;;;;;;;1.30;0.30;;;17.20;69.40;;;;;;5068462;28;20234;-77
2022/07/07 00:33:49;;;;;;;2.95;0.60;;;17.20;69.40;;;;;;5060990;28;22145;-76
2022/07/07 00:36:14;;;;;;;1.55;0.38;;;17.20;69.50;;;;;;5064395;28;20070;-76
2022/07/07 00:38:40;;;;;;;5.32;0.68;;;17.30;69.40;;;;;;5060613;28;20040;-79
2022/07/07 00:41:06;;;;;;;3.97;0.60;;;17.30;69.60;;;;;;5067016;28;20631;-78
2022/07/07 00:43:37;;;;;;;1.67;0.73;;;17.30;69.90;;;;;;5044615;28;20025;-77
2022/07/07 00:46:03;;;;;;;1.73;0.68;;;17.20;69.30;;;;;;5067197;28;20025;-77
2022/07/07 00:48:32;;;;;;;2.92;0.57;;;17.20;70.00;;;;;;5068175;28;20025;-79
2022/07/07 00:50:58;;;;;;;0.90;0.57;;;17.20;70.10;;;;;;5048849;28;20086;-75
2022/07/07 00:53:24;;;;;;;1.05;0.40;;;17.30;69.80;;;;;;5049962;28;20032;-76
2022/07/07 00:55:49;;;;;;;2.92;0.50;;;17.30;69.70;;;;;;5052721;28;20063;-78
2022/07/07 00:58:14;;;;;;;3.35;0.50;;;17.30;69.40;;;;;;5063856;28;20094;-79
2022/07/07 01:00:41;;;;;;;2.63;0.50;;;17.30;69.60;;;;;;5061068;28;20033;-78
2022/07/07 01:03:08;;;;;;;2.20;0.60;;;17.40;69.90;;;;;;5050315;28;20032;-77
2022/07/07 01:05:36;;;;;;;3.20;0.60;;;17.40;69.60;;;;;;5066602;28;20043;-76
2022/07/07 01:08:03;;;;;;;5.18;0.45;;;17.40;69.70;;;;;;5055112;28;20035;-76
2022/07/07 01:10:29;;;;;;;3.63;0.55;;;17.40;69.90;;;;;;5043371;28;20389;-79
2022/07/07 01:12:55;;;;;;;2.10;0.60;;;17.40;69.50;;;;;;5042853;28;20028;-79
2022/07/07 01:15:20;;;;;;;5.32;0.70;;;17.40;70.00;;;;;;5043203;28;20101;-77
2022/07/07 01:17:46;;;;;;;2.38;0.80;;;17.40;69.60;;;;;;5063758;28;20032;-77
2022/07/07 01:20:13;;;;;;;3.33;0.82;;;17.40;69.80;;;;;;5062946;28;20041;-77
2022/07/07 01:22:55;;;;;;;1.83;0.65;;;17.40;69.80;;;;;;5044885;28;20054;-77
2022/07/07 01:25:21;;;;;;;1.55;1.10;;;17.40;70.00;;;;;;5066405;28;20086;-78
2022/07/07 01:27:47;;;;;;;1.52;0.50;;;17.30;70.40;;;;;;5062329;28;20132;-76
2022/07/07 01:30:13;;;;;;;1.13;0.50;;;17.30;71.20;;;;;;5067247;28;20032;-76
2022/07/07 01:32:38;;;;;;;1.25;0.50;;;17.20;72.50;;;;;;5049194;28;20040;-77
2022/07/07 01:35:05;;;;;;;5.80;1.05;;;17.30;73.00;;;;;;5055475;28;20035;-78
2022/07/07 01:37:33;;;;;;;6.47;0.70;;;17.20;74.20;;;;;;5057534;28;20036;-77
2022/07/07 01:39:58;;;;;;;6.18;0.73;;;17.10;74.40;;;;;;5059382;28;20040;-77
2022/07/07 01:42:24;;;;;;;3.20;0.70;;;17.10;75.90;;;;;;5060383;28;20040;-78
2022/07/07 01:44:51;;;;;;;5.15;1.05;;;17.10;77.00;;;;;;5061532;28;20037;-77
2022/07/07 01:47:18;;;;;;;2.58;0.50;;;17.10;79.80;;;;;;5062762;28;20115;-79
2022/07/07 01:49:44;;;;;;;1.90;0.73;;;17.00;80.80;;;;;;5048531;28;20040;-79
2022/07/07 01:52:10;;;;;;;0.82;0.50;;;16.80;81.80;;;;;;5058090;28;20402;-77
2022/07/07 01:54:36;;;;;;;0.85;0.50;;;16.70;84.10;;;;;;5052515;28;20033;-79
2022/07/07 01:57:02;;;;;;;2.95;0.60;;;16.60;86.00;;;;;;5057143;28;20052;-76
2022/07/07 01:59:28;;;;;;;1.52;0.50;;;16.40;88.10;;;;;;5050008;28;20451;-77
2022/07/07 02:01:54;;;;;;;1.30;0.50;;;16.40;90.00;;;;;;5074877;28;20024;-76
2022/07/07 02:04:20;;;;;;;2.70;0.70;;;16.30;91.00;;;;;;5064164;28;20068;-76
2022/07/07 02:06:45;;;;;;;2.75;0.70;;;16.30;91.60;;;;;;5035647;28;20131;-78
2022/07/07 02:09:11;;;;;;;1.65;0.52;;;16.10;92.40;;;;;;5079225;28;20021;-77
2022/07/07 02:11:36;;;;;;;1.70;0.40;;;16.10;93.00;;;;;;5046219;28;20028;-77
2022/07/07 02:14:03;;;;;;;1.85;0.50;;;16.10;93.40;;;;;;5066591;28;20037;-79
2022/07/07 02:16:28;;;;;;;3.33;0.85;;;16.10;94.00;;;;;;5041681;28;20036;-77
2022/07/07 02:18:56;;;;;;;2.42;0.70;;;16.10;94.10;;;;;;5046931;28;20614;-76
2022/07/07 02:21:23;;;;;;;1.27;1.08;;;16.10;94.30;;;;;;5045370;28;20047;-77
2022/07/07 02:23:50;;;;;;;1.27;0.60;;;16.10;94.50;;;;;;5056330;28;20029;-78
2022/07/07 02:26:16;;;;;;;1.00;0.65;;;16.10;94.60;;;;;;5068063;28;20037;-78
2022/07/07 02:28:42;;;;;;;2.53;0.82;;;16.10;94.70;;;;;;5062724;28;20148;-76
2022/07/07 02:31:09;;;;;;;3.42;1.48;;;16.00;95.10;;;;;;5070814;28;20094;-77
2022/07/07 02:33:35;;;;;;;4.72;1.05;;;16.00;95.30;;;;;;5049942;28;20032;-78
2022/07/07 02:36:03;;;;;;;2.70;1.42;;;16.00;95.70;;;;;;5065675;28;20115;-77
2022/07/07 02:38:29;;;;;;;2.60;0.70;;;16.00;95.90;;;;;;5066533;28;20112;-78
2022/07/07 02:40:55;;;;;;;2.55;1.10;;;16.00;96.00;;;;;;5055934;28;20044;-79
2022/07/07 02:43:22;;;;;;;1.35;0.60;;;16.00;96.20;;;;;;5068596;28;20077;-76
2022/07/07 02:45:49;;;;;;;1.52;1.02;;;16.00;96.30;;;;;;5049947;28;20040;-77
2022/07/07 02:48:17;;;;;;;3.00;0.90;;;16.00;96.60;;;;;;5072359;28;20035;-77
2022/07/07 02:50:43;;;;;;;2.97;1.10;;;16.10;96.80;;;;;;5071082;28;20064;-78
2022/07/07 02:53:10;;;;;;;1.73;0.80;;;16.10;96.60;;;;;;5067087;28;20071;-75
2022/07/07 02:55:36;;;;;;;5.03;0.90;;;16.10;96.90;;;;;;5050732;28;20037;-79
2022/07/07 02:58:03;;;;;;;3.25;0.70;;;16.10;96.80;;;;;;5048760;28;20032;-77
2022/07/07 03:00:29;;;;;;;1.95;0.60;;;16.10;96.80;;;;;;5059407;28;20041;-80
2022/07/07 03:02:55;;;;;;;1.85;0.70;;;16.20;97.30;;;;;;5055016;28;20618;-77
2022/07/07 03:05:22;;;;;;;6.20;1.65;;;16.10;97.10;;;;;;5040597;28;20039;-78
2022/07/07 03:07:48;;;;;;;1.15;0.60;;;16.10;96.90;;;;;;5047783;28;20111;-78
2022/07/07 03:10:13;;;;;;;1.60;0.77;;;16.10;97.10;;;;;;5046675;28;20090;-77
2022/07/07 03:12:39;;;;;;;1.38;0.65;;;16.10;96.80;;;;;;5069703;28;20032;-78
2022/07/07 03:15:05;;;;;;;2.42;0.80;;;16.10;97.00;;;;;;5046790;28;20029;-77
2022/07/07 03:17:31;;;;;;;1.58;0.82;;;16.10;97.10;;;;;;5060849;28;20029;-79
2022/07/07 03:19:56;;;;;;;5.03;1.00;;;16.10;96.90;;;;;;5056159;28;20128;-80
2022/07/07 03:22:22;;;;;;;2.40;0.80;;;16.10;96.80;;;;;;5057803;28;20029;-77
2022/07/07 03:24:47;;;;;;;9.43;1.60;;;16.10;97.00;;;;;;5068146;28;20055;-77
2022/07/07 03:27:13;;;;;;;3.00;0.90;;;16.10;97.00;;;;;;5065517;28;20029;-78
2022/07/07 03:29:39;;;;;;;2.17;1.02;;;16.10;96.90;;;;;;5062040;28;20379;-79
2022/07/07 03:32:05;;;;;;;6.43;0.90;;;16.10;97.00;;;;;;5051735;28;20029;-81
2022/07/07 03:34:31;;;;;;;1.58;0.80;;;16.10;97.10;;;;;;5068896;28;20037;-78
2022/07/07 03:36:56;;;;;;;2.13;0.95;;;16.20;96.90;;;;;;5046004;28;20025;-78
2022/07/07 03:39:22;;;;;;;3.55;1.88;;;16.20;97.00;;;;;;5057309;28;20037;-77
2022/07/07 03:41:47;;;;;;;1.80;0.60;;;16.20;97.20;;;;;;5074781;28;20140;-79
2022/07/07 03:44:13;;;;;;;2.55;1.05;;;16.10;96.70;;;;;;5050267;28;20497;-78
2022/07/07 03:46:38;;;;;;;2.55;0.98;;;16.10;96.80;;;;;;5042716;28;20025;-78
2022/07/07 03:49:04;;;;;;;2.30;1.00;;;16.00;96.80;;;;;;5064436;28;20091;-77
2022/07/07 03:51:29;;;;;;;1.42;0.70;;;16.00;96.90;;;;;;5052348;28;20478;-79
2022/07/07 03:53:55;;;;;;;1.58;0.65;;;16.00;97.20;;;;;;5053113;28;20201;-77
2022/07/07 03:56:20;;;;;;;3.72;0.80;;;15.90;96.90;;;;;;5052020;28;20032;-81
2022/07/07 03:58:46;;;;;;;1.67;0.77;;;16.00;97.10;;;;;;5068103;28;20359;-78
2022/07/07 04:01:12;;;;;;;1.50;0.80;;;16.00;97.40;;;;;;5062630;28;20102;-78
2022/07/07 04:03:40;;;;;;;2.97;0.70;;;16.00;97.60;;;;;;5056640;28;20040;-78
2022/07/07 04:06:06;;;;;;;1.90;0.85;;;16.00;97.60;;;;;;5042531;28;20051;-77
2022/07/07 04:08:31;;;;;;;2.95;0.93;;;16.10;97.90;;;;;;5047372;28;20112;-78
2022/07/07 04:10:57;;;;;;;7.20;0.85;;;16.10;98.20;;;;;;5036866;28;20128;-77
2022/07/07 04:13:23;;;;;;;3.10;0.77;;;16.20;98.30;;;;;;5044117;28;20374;-78
2022/07/07 04:15:48;;;;;;;3.45;0.98;;;16.20;98.20;;;;;;5063829;28;20033;-78
2022/07/07 04:18:15;;;;;;;2.33;1.00;;;16.20;98.30;;;;;;5077117;28;20020;-78
2022/07/07 04:20:40;;;;;;;1.83;0.73;;;16.30;98.40;;;;;;5075790;28;20551;-78
2022/07/07 04:23:06;;;;;;;4.00;1.20;;;16.30;98.50;;;;;;5044860;28;20025;-77
2022/07/07 04:25:32;;;;;;;2.17;0.85;;;16.30;98.50;;;;;;5067996;28;20386;-79
2022/07/07 04:27:57;;;;;;;8.95;1.15;;;16.30;98.50;;;;;;5051893;28;20028;-78
2022/07/07 04:30:23;;;;;;;2.83;1.05;;;16.30;98.10;;;;;;5065140;28;20184;-79
2022/07/07 04:32:48;;;;;;;3.10;0.93;;;16.40;98.40;;;;;;5044301;28;20028;-79
2022/07/07 04:35:14;;;;;;;3.22;1.10;;;16.40;98.50;;;;;;5046456;28;20055;-77
2022/07/07 04:37:40;;;;;;;3.50;1.13;;;16.40;98.10;;;;;;5069432;28;20028;-81
2022/07/07 04:40:07;;;;;;;1.83;0.70;;;16.40;98.30;;;;;;5058693;28;20482;-78
2022/07/07 04:42:33;;;;;;;8.65;1.25;;;16.40;98.20;;;;;;5058006;28;20059;-77
2022/07/07 04:44:59;;;;;;;2.55;1.02;;;16.40;98.50;;;;;;5054206;28;20104;-78
2022/07/07 04:47:24;;;;;;;2.85;1.08;;;16.50;98.00;;;;;;5053130;28;20045;-78
2022/07/07 04:49:53;;;;;;;3.97;0.90;;;16.50;98.20;;;;;;5038418;28;20474;-78
2022/07/07 04:52:19;;;;;;;4.93;0.85;;;16.50;97.90;;;;;;5062976;28;20067;-81
2022/07/07 04:54:44;;;;;;;1.80;0.90;;;16.50;98.10;;;;;;5043025;28;20061;-82
2022/07/07 04:57:10;;;;;;;3.58;0.85;;;16.60;98.20;;;;;;5060815;28;20036;-79
2022/07/07 04:59:36;;;;;;;2.13;1.00;;;16.60;98.20;;;;;;5034649;28;20494;-79
2022/07/07 05:02:02;;;;;;;6.07;1.08;;;16.60;98.20;;;;;;5039847;28;20029;-77
2022/07/07 05:04:28;;;;;;;2.67;0.73;;;16.50;97.70;;;;;;5067918;28;20040;-78
2022/07/07 05:06:54;;;;;;;3.42;0.80;;;16.50;97.90;;;;;;5060419;28;20041;-79
2022/07/07 05:09:19;;;;;;;2.25;1.25;;;16.40;98.30;;;;;;5061254;28;20398;-79
2022/07/07 05:11:45;;;;;;;2.38;1.17;;;16.30;98.70;;;;;;5051792;28;20056;-78
2022/07/07 05:14:11;;;;;;;4.15;1.35;;;16.30;99.00;;;;;;5047533;28;20491;-80
2022/07/07 05:16:36;;;;;;;2.72;1.35;;;16.20;99.20;;;;;;5064621;28;20033;-79
2022/07/07 05:19:02;;;;;;;3.47;1.77;;;16.10;99.30;;;;;;5045961;28;20029;-79
2022/07/07 05:21:28;;;;;;;3.10;1.42;;;16.10;99.50;;;;;;5060833;28;20044;-79
2022/07/07 05:23:53;;;;;;;3.90;2.30;;;16.00;99.80;;;;;;5060320;28;20086;-78
2022/07/07 05:26:19;;;;;;;9.15;1.98;;;16.00;99.90;;;;;;5062775;28;20048;-79
2022/07/07 05:28:45;;;;;;;2.78;1.90;;;15.90;99.80;;;;;;5056469;28;20047;-81
2022/07/07 05:31:13;;;;;;;3.15;2.13;;;15.90;99.90;;;;;;5055654;28;20040;-79
2022/07/07 05:33:39;;;;;;;2.97;1.85;;;15.90;99.90;;;;;;5046944;28;20119;-80
2022/07/07 05:36:06;;;;;;;5.93;1.55;;;15.90;99.90;;;;;;5066966;28;20028;-80
2022/07/07 05:38:32;;;;;;;2.13;1.50;;;15.80;99.90;;;;;;5049452;28;20044;-78
2022/07/07 05:40:57;;;;;;;3.45;1.90;;;15.80;99.90;;;;;;5047813;28;20040;-78
2022/07/07 05:43:23;;;;;;;4.45;1.73;;;15.80;99.90;;;;;;5059719;28;20055;-75
2022/07/07 05:45:49;;;;;;;2.05;1.30;;;15.80;99.90;;;;;;5072009;28;20029;-76
2022/07/07 05:48:15;;;;;;;2.97;2.05;;;15.80;99.90;;;;;;5049536;28;20072;-75
2022/07/07 05:50:40;;;;;;;2.10;1.58;;;15.80;99.90;;;;;;5072616;28;20051;-76
2022/07/07 05:53:06;;;;;;;4.07;1.65;;;15.70;99.90;;;;;;5091160;28;20020;-75
2022/07/07 05:55:31;;;;;;;3.53;1.70;;;15.70;99.90;;;;;;5058568;28;20031;-75
2022/07/07 05:57:57;;;;;;;2.33;1.90;;;15.70;99.90;;;;;;5070709;28;20544;-75
2022/07/07 06:00:24;;;;;;;2.30;2.03;;;15.70;99.90;;;;;;5067513;28;20086;-75
2022/07/07 06:02:50;;;;;;;4.97;2.45;;;15.60;99.90;;;;;;5083770;28;20433;-75
2022/07/07 06:05:16;;;;;;;3.80;2.10;;;15.60;99.90;;;;;;5067397;28;20020;-76
2022/07/07 06:07:42;;;;;;;4.45;2.40;;;15.60;99.90;;;;;;5067871;28;20070;-75
2022/07/07 06:10:08;;;;;;;3.45;2.20;;;15.60;99.90;;;;;;5050355;28;20032;-76
2022/07/07 06:12:33;;;;;;;5.35;2.60;;;15.60;99.90;;;;;;5088412;28;20032;-76
2022/07/07 06:14:59;;;;;;;5.72;2.70;;;15.60;99.90;;;;;;5085173;28;20021;-76
2022/07/07 06:17:25;;;;;;;5.80;2.92;;;15.60;99.90;;;;;;5067396;28;20043;-75
2022/07/07 06:19:50;;;;;;;3.45;2.40;;;15.60;99.90;;;;;;5056105;28;20056;-75
2022/07/07 06:22:16;;;;;;;6.60;3.10;;;15.60;99.90;;;;;;5062988;28;20025;-75
2022/07/07 06:24:41;;;;;;;5.18;2.30;;;15.60;99.90;;;;;;5076202;28;20028;-75
2022/07/07 06:27:07;;;;;;;5.13;2.55;;;15.50;99.90;;;;;;5054903;28;20107;-75
2022/07/07 06:29:33;;;;;;;4.20;2.40;;;15.50;99.90;;;;;;5076786;28;20060;-76
2022/07/07 06:31:58;;;;;;;5.25;2.67;;;15.50;99.90;;;;;;5038379;28;20109;-77
2022/07/07 06:34:24;;;;;;;6.20;2.58;;;15.50;99.90;;;;;;5056188;28;20178;-75
2022/07/07 06:36:49;;;;;;;7.60;3.20;;;15.50;99.90;;;;;;5063371;28;20025;-75
2022/07/07 06:39:15;;;;;;;4.45;2.72;;;15.50;99.90;;;;;;5064075;28;20032;-75
2022/07/07 06:41:40;;;;;;;5.10;2.70;;;15.60;99.90;;;;;;5055786;28;20125;-76
2022/07/07 06:44:09;;;;;;;3.95;2.90;;;15.60;99.90;;;;;;5037029;28;20433;-76
2022/07/07 06:46:34;;;;;;;3.97;2.80;;;15.70;99.90;;;;;;5060279;28;20039;-76
2022/07/07 06:49:00;;;;;;;4.05;3.17;;;15.70;99.90;;;;;;5050047;28;20028;-76
2022/07/07 06:51:26;;;;;;;5.80;2.78;;;15.80;99.90;;;;;;5067461;28;20036;-76
2022/07/07 06:53:51;;;;;;;5.97;3.13;;;15.90;99.90;;;;;;5049724;28;20089;-75
2022/07/07 06:56:17;;;;;;;4.18;2.83;;;16.00;99.90;;;;;;5066757;28;20043;-75
2022/07/07 06:58:42;;;;;;;3.28;2.60;;;16.00;99.90;;;;;;5067978;28;20044;-76
2022/07/07 07:01:08;;;;;;;3.58;3.08;;;16.10;99.90;;;;;;5080972;28;20090;-74
2022/07/07 07:03:33;;;;;;;3.50;2.55;;;16.10;99.90;;;;;;5080416;28;20032;-75
2022/07/07 07:05:59;;;;;;;5.25;2.60;;;16.30;99.90;;;;;;5059342;28;20039;-76
2022/07/07 07:08:24;;;;;;;4.20;2.75;;;16.30;99.90;;;;;;5067214;28;20064;-75
2022/07/07 07:10:50;;;;;;;2.97;2.70;;;16.20;99.90;;;;;;5067137;28;20525;-74
2022/07/07 07:13:15;;;;;;;7.32;2.50;;;16.30;99.90;;;;;;5052425;28;20165;-75
2022/07/07 07:15:41;;;;;;;2.67;2.33;;;16.20;99.90;;;;;;5078022;28;20044;-78
2022/07/07 07:18:06;;;;;;;3.47;2.70;;;16.20;99.90;;;;;;5071119;28;20028;-75
2022/07/07 07:20:32;;;;;;;5.40;2.88;;;16.10;99.90;;;;;;5071604;28;20529;-76
2022/07/07 07:22:58;;;;;;;6.05;3.17;;;16.10;99.90;;;;;;5053217;28;20039;-75
2022/07/07 07:25:24;;;;;;;5.70;3.42;;;16.20;99.90;;;;;;5071067;28;20104;-76
2022/07/07 07:27:49;;;;;;;4.97;2.72;;;16.10;99.90;;;;;;5057091;28;20024;-76
2022/07/07 07:30:15;;;;;;;5.55;2.60;;;16.10;99.90;;;;;;5075677;28;20036;-76
2022/07/07 07:32:40;;;;;;;4.50;3.17;;;16.10;99.90;;;;;;5053540;28;20470;-77
2022/07/07 07:35:06;;;;;;;3.78;2.75;;;16.10;99.90;;;;;;5086179;28;20025;-77
2022/07/07 07:37:32;;;;;;;2.80;2.53;;;16.10;99.90;;;;;;5052030;28;20028;-76
2022/07/07 07:39:57;;;;;;;3.58;3.20;;;16.10;99.90;;;;;;5084365;28;20122;-77
2022/07/07 07:42:23;;;;;;;3.13;2.83;;;16.10;99.90;;;;;;5079601;28;20775;-77
2022/07/07 07:47:32;;;;;;;3.30;3.00;;;16.30;99.90;;;;;;5069960;28;20415;-78
2022/07/07 07:49:58;;;;;;;3.50;3.20;;;16.30;99.90;;;;;;5070067;28;20036;-76
2022/07/07 07:52:23;;;;;;;4.63;3.53;;;16.40;99.90;;;;;;5055349;28;20056;-76
2022/07/07 07:54:49;;;;;;;6.97;3.53;;;16.40;99.90;;;;;;5072951;28;20025;-77
2022/07/07 07:57:14;;;;;;;5.53;2.85;;;16.50;99.90;;;;;;5075335;28;20042;-76
2022/07/07 07:59:40;;;;;;;3.25;2.95;;;16.50;99.90;;;;;;5056676;28;20032;-76
2022/07/07 08:02:06;;;;;;;6.00;3.50;;;16.40;99.90;;;;;;5055434;28;20024;-75
2022/07/07 08:04:31;;;;;;;4.22;3.08;;;16.40;99.90;;;;;;5050979;28;20036;-77
2022/07/07 08:06:57;;;;;;;3.38;3.08;;;16.40;99.90;;;;;;5062814;28;20020;-78
2022/07/07 08:09:22;;;;;;;3.30;3.00;;;16.30;99.90;;;;;;5070180;28;20033;-76
2022/07/07 08:11:48;;;;;;;4.25;3.85;;;16.30;99.90;;;;;;5054603;28;20036;-77
2022/07/07 08:14:13;;;;;;;5.43;3.92;;;16.10;99.90;;;;;;5051832;28;20478;-76
2022/07/07 08:16:39;;;;;;;4.18;3.78;;;16.10;99.90;;;;;;5068871;28;20024;-76
2022/07/07 08:19:04;;;;;;;5.03;3.58;;;16.20;99.90;;;;;;5069830;28;20052;-75
2022/07/07 08:21:30;;;;;;;5.63;3.60;;;16.30;99.90;;;;;;5068932;28;20036;-76
2022/07/07 08:23:55;;;;;;;4.28;3.20;;;16.40;99.90;;;;;;5051074;28;20020;-77
2022/07/07 08:26:21;;;;;;;4.97;3.28;;;16.40;99.90;;;;;;5050409;28;20442;-76
2022/07/07 08:28:47;;;;;;;4.65;3.80;;;16.40;99.90;;;;;;5038007;28;20033;-77
2022/07/07 08:31:12;;;;;;;6.43;3.92;;;16.40;99.90;;;;;;5050601;28;20031;-78
2022/07/07 08:33:38;;;;;;;4.68;4.20;;;16.40;99.90;;;;;;5051223;28;20036;-77
2022/07/07 08:36:04;;;;;;;6.70;4.43;;;16.40;99.90;;;;;;5050013;28;20508;-77
2022/07/07 08:38:29;;;;;;;7.07;4.35;;;16.40;99.90;;;;;;5079137;28;20054;-76
2022/07/07 08:40:55;;;;;;;5.80;4.43;;;16.40;99.90;;;;;;5070128;28;20036;-78
2022/07/07 08:43:21;;;;;;;7.20;4.68;;;16.50;99.90;;;;;;5080439;28;20043;-76
2022/07/07 08:45:48;;;;;;;6.25;4.55;;;16.50;99.90;;;;;;5070374;28;20028;-76
2022/07/07 08:48:13;;;;;;;7.18;4.57;;;16.60;99.90;;;;;;5072087;28;20036;-76
2022/07/07 08:50:39;;;;;;;5.60;4.60;;;16.70;99.90;;;;;;5049247;28;20032;-77
2022/07/07 08:53:07;;;;;;;4.65;4.25;;;16.70;99.90;;;;;;5032126;28;20033;-77
2022/07/07 08:55:35;;;;;;;5.32;4.47;;;16.80;99.90;;;;;;5061342;28;20036;-77
2022/07/07 08:58:02;;;;;;;5.53;4.30;;;16.90;99.90;;;;;;5067449;28;20422;-81
2022/07/07 09:00:27;;;;;;;6.70;4.90;;;17.00;99.90;;;;;;5033459;28;20651;-82
2022/07/07 09:02:57;;;;;;;6.68;4.82;;;16.90;99.90;;;;;;5061206;28;20108;-80
2022/07/07 09:05:23;;;;;;;7.35;4.85;;;16.90;99.90;;;;;;5062474;28;20032;-80
2022/07/07 09:07:50;;;;;;;5.18;4.68;;;16.80;99.90;;;;;;5035440;28;20074;-81
2022/07/07 09:10:33;;;;;;;7.38;5.30;;;16.80;99.90;;;;;;5063932;28;20031;-79
2022/07/07 09:12:59;;;;;;;6.55;4.90;;;16.90;99.90;;;;;;5053848;28;20033;-79
2022/07/07 09:15:25;;;;;;;7.18;5.03;;;17.00;99.90;;;;;;5078152;28;20395;-79
2022/07/07 09:17:51;;;;;;;7.10;5.38;;;17.00;99.90;;;;;;5068290;28;20101;-80
2022/07/07 09:20:17;;;;;;;6.40;5.05;;;17.20;99.90;;;;;;5070226;28;20064;-78
2022/07/07 09:22:55;;;;;;;7.65;4.75;;;17.20;99.90;;;;;;5055213;28;20130;-80
2022/07/07 09:25:25;;;;;;;5.38;4.65;;;17.30;99.90;;;;;;5084198;28;20630;-79
2022/07/07 09:27:53;;;;;;;5.05;4.20;;;17.30;99.90;;;;;;5050242;28;20036;-80
2022/07/07 09:30:34;;;;;;;4.95;4.40;;;17.40;99.90;;;;;;5049732;28;20032;-79
2022/07/07 09:33:03;;;;;;;5.93;4.85;;;17.40;99.90;;;;;;5067904;28;20055;-80
2022/07/07 09:38:22;;;;;;;5.35;4.35;;;17.50;99.90;;;;;;5067865;28;20390;-80
2022/07/07 09:40:59;;;;;;;4.93;4.43;;;17.50;99.90;;;;;;5057010;28;20041;-78
2022/07/07 09:43:27;;;;;;;7.60;5.32;;;17.50;99.90;;;;;;5067920;28;20032;-79
2022/07/07 09:46:13;;;;;;;4.93;4.35;;;17.50;99.90;;;;;;5036265;28;20157;-78
2022/07/07 09:48:42;;;;;;;7.68;5.13;;;17.40;99.90;;;;;;5056952;28;20039;-79
2022/07/07 09:51:15;;;;;;;8.40;5.90;;;17.40;99.90;;;;;;5083338;28;20533;-78
2022/07/07 09:54:06;;;;;;;4.90;4.40;;;17.40;99.90;;;;;;5088587;28;20078;-79
2022/07/07 09:56:40;;;;;;;5.43;4.60;;;17.50;99.90;;;;;;5053845;28;20048;-79
2022/07/07 09:59:09;;;;;;;5.05;4.60;;;17.60;99.90;;;;;;5067793;28;20133;-79
2022/07/07 10:01:37;;;;;;;4.93;4.47;;;17.60;99.90;;;;;;5067420;28;20110;-80
2022/07/07 10:04:05;;;;;;;6.15;4.82;;;17.70;99.90;;;;;;5049782;28;20111;-78
2022/07/07 10:06:33;;;;;;;6.13;4.40;;;17.80;99.90;;;;;;5067301;28;20029;-80
2022/07/07 10:09:10;;;;;;;6.22;4.18;;;17.90;99.90;;;;;;5067673;28;20044;-78
2022/07/07 10:11:45;;;;;;;8.65;4.53;;;18.00;99.90;;;;;;5060827;28;20397;-79
2022/07/07 10:14:41;;;;;;;4.63;4.15;;;18.00;99.90;;;;;;5084378;28;20032;-79
2022/07/07 10:17:08;;;;;;;4.95;3.97;;;17.90;99.90;;;;;;5085745;28;20043;-79
2022/07/07 10:19:33;;;;;;;4.43;4.03;;;17.80;99.90;;;;;;5062147;28;20028;-79
2022/07/07 10:21:59;;;;;;;4.60;4.15;;;17.80;99.90;;;;;;5046878;28;20032;-82
2022/07/07 10:24:31;;;;;;;4.45;4.05;;;17.80;99.90;;;;;;5049282;28;20032;-80
2022/07/07 10:26:59;;;;;;;5.90;3.83;;;17.70;99.90;;;;;;5058303;28;20025;-82
2022/07/07 10:29:45;;;;;;;4.85;4.45;;;17.70;99.90;;;;;;5063036;28;20029;-80
2022/07/07 10:32:16;;;;;;;5.35;3.80;;;17.70;99.90;;;;;;5066040;28;20032;-78
2022/07/07 10:34:52;;;;;;;5.38;4.57;;;17.70;99.90;;;;;;5062561;28;20025;-79
2022/07/07 10:37:19;;;;;;;3.70;3.40;;;17.80;99.90;;;;;;5066114;28;20021;-77
2022/07/07 10:39:48;;;;;;;3.97;3.60;;;17.90;99.90;;;;;;5067190;28;20486;-77
2022/07/07 10:42:16;;;;;;;5.95;4.03;;;18.00;99.90;;;;;;5066833;28;20036;-77
2022/07/07 10:44:44;;;;;;;3.88;3.55;;;18.20;99.90;;;;;;5049809;28;20067;-78
2022/07/07 10:47:16;;;;;;;4.32;3.22;;;18.30;99.90;;;;;;5070784;28;20039;-77
2022/07/07 10:49:44;;;;;;;3.17;2.85;;;18.40;99.90;;;;;;5059452;28;20036;-77
2022/07/07 10:52:40;;;;;;;3.80;3.50;;;18.50;99.90;;;;;;5077967;28;20032;-79
2022/07/07 10:55:06;;;;;;;3.90;3.60;;;18.50;99.90;;;;;;5029205;28;20517;-78
2022/07/07 10:57:43;;;;;;;3.60;3.30;;;18.50;99.90;;;;;;5064032;28;20021;-76
2022/07/07 11:00:10;;;;;;;3.75;2.92;;;18.60;99.90;;;;;;5070574;28;20040;-77
2022/07/07 11:02:37;;;;;;;3.25;2.95;;;18.50;99.90;;;;;;5082005;28;20024;-78
2022/07/07 11:05:09;;;;;;;5.82;3.53;;;18.50;99.90;;;;;;5079283;28;20477;-77
2022/07/07 11:07:35;;;;;;;3.53;3.10;;;18.40;99.90;;;;;;5064709;28;20041;-78
2022/07/07 11:10:07;;;;;;;4.65;3.75;;;18.30;99.90;;;;;;5057969;28;20496;-76
2022/07/07 11:12:47;;;;;;;3.53;3.22;;;18.30;99.90;;;;;;5061196;28;20107;-77
2022/07/07 11:15:21;;;;;;;4.97;3.28;;;18.30;99.90;;;;;;5050861;28;20127;-76
2022/07/07 11:18:06;;;;;;;4.32;3.67;;;18.40;99.90;;;;;;5084457;28;20482;-76
2022/07/07 11:20:32;;;;;;;3.50;3.20;;;18.50;99.90;;;;;;5062727;28;20425;-76
2022/07/07 11:23:10;;;;;;;3.70;3.40;;;18.50;99.90;;;;;;5070276;28;20096;-79
2022/07/07 11:25:36;;;;;;;5.20;4.70;;;18.60;99.90;;;;;;5050666;28;20222;-78
2022/07/07 11:28:04;;;;;;;4.47;4.07;;;18.60;99.90;;;;;;5071280;28;20386;-78
2022/07/07 11:30:30;;;;;;;6.50;3.90;;;18.60;99.90;;;;;;5067403;28;20033;-77
2022/07/07 11:32:57;;;;;;;5.72;4.45;;;18.70;99.90;;;;;;5070948;28;20036;-78
2022/07/07 11:35:22;;;;;;;5.90;4.15;;;18.80;99.90;;;;;;5057514;28;20467;-77
2022/07/07 11:37:48;;;;;;;4.22;3.83;;;18.90;99.90;;;;;;5051875;28;20033;-78
2022/07/07 11:40:14;;;;;;;4.40;3.67;;;19.00;99.90;;;;;;5078487;28;20041;-77
2022/07/07 11:42:41;;;;;;;4.22;3.83;;;19.00;99.90;;;;;;5053132;28;20042;-77
2022/07/07 11:45:20;;;;;;;4.43;4.03;;;19.20;99.90;;;;;;5058989;28;20107;-76
2022/07/07 11:47:47;;;;;;;3.75;3.33;;;19.30;99.90;;;;;;5037499;28;21016;-77
2022/07/07 11:50:12;;;;;;;3.40;2.92;;;19.50;99.90;;;;;;5069727;28;20024;-78
2022/07/07 11:52:38;;;;;;;3.38;3.08;;;19.70;99.90;;;;;;5052635;28;20055;-76
2022/07/07 11:55:05;;;;;;;3.75;3.33;;;19.90;99.90;;;;;;5058623;28;20036;-75
2022/07/07 11:57:37;;;;;;;3.50;3.20;;;20.10;99.90;;;;;;5038143;28;20044;-76
2022/07/07 12:00:18;;;;;;;3.20;2.67;;;20.40;99.90;;;;;;5070608;28;20028;-78
2022/07/07 12:02:45;;;;;;;3.38;2.85;;;20.70;99.00;;;;;;5057827;28;20557;-76
2022/07/07 12:05:11;;;;;;;4.10;2.63;;;21.00;99.50;;;;;;5051876;28;20486;-76
2022/07/07 12:07:38;;;;;;;3.33;2.80;;;21.10;97.90;;;;;;5065858;28;20609;-77
2022/07/07 12:10:04;;;;;;;3.58;3.10;;;21.20;97.50;;;;;;5055591;28;20036;-76
2022/07/07 12:12:30;;;;;;;2.58;2.38;;;21.20;98.00;;;;;;5056493;28;20547;-76
2022/07/07 12:14:55;;;;;;;3.20;2.90;;;21.10;97.50;;;;;;5048959;28;20017;-77
2022/07/07 12:17:39;;;;;;;2.90;2.47;;;21.10;98.10;;;;;;5059270;28;20033;-77
2022/07/07 12:20:06;;;;;;;3.92;2.30;;;21.30;97.00;;;;;;5065403;28;20379;-76
2022/07/07 12:22:36;;;;;;;2.28;2.08;;;21.20;97.30;;;;;;5071202;28;20118;-77
2022/07/07 12:25:04;;;;;;;3.35;2.85;;;21.30;96.90;;;;;;5073789;28;20058;-78
2022/07/07 12:27:30;;;;;;;3.78;2.50;;;21.20;97.20;;;;;;5058808;28;20037;-77
2022/07/07 12:30:06;;;;;;;3.20;2.40;;;21.00;97.10;;;;;;5056992;28;20547;-78
2022/07/07 12:32:31;;;;;;;2.70;2.45;;;20.80;97.50;;;;;;5065080;28;20052;-77
2022/07/07 12:34:57;;;;;;;2.72;2.42;;;20.70;97.20;;;;;;5068927;28;20063;-77
2022/07/07 12:37:43;;;;;;;2.50;2.30;;;20.70;97.90;;;;;;5047420;28;20119;-75
2022/07/07 12:40:12;;;;;;;4.57;1.92;;;20.70;98.10;;;;;;5074435;28;20041;-78
2022/07/07 12:42:37;;;;;;;3.00;2.40;;;20.80;96.90;;;;;;5069814;28;20392;-77
2022/07/07 12:45:13;;;;;;;1.65;1.55;;;20.90;97.60;;;;;;5069892;28;20032;-77
2022/07/07 12:47:50;;;;;;;2.55;2.28;;;21.00;97.20;;;;;;5055249;28;20119;-77
2022/07/07 12:50:16;;;;;;;3.03;2.00;;;21.10;96.50;;;;;;5051895;28;20037;-78
2022/07/07 12:53:00;;;;;;;2.67;2.28;;;21.20;96.80;;;;;;5051741;28;20025;-77
2022/07/07 12:55:36;;;;;;;3.22;2.33;;;21.30;96.80;;;;;;5067533;28;20061;-77